createdAt,value
2024-04-14T00:01:10.277Z,0.2833333333333333
2024-04-14T00:02:00.229Z,0.11944444444444444
2024-04-14T00:02:58.897Z,0.08055555555555555
2024-04-14T00:04:01.090Z,0.15833333333333333
2024-04-14T00:05:00.040Z,0.11944444444444444
2024-04-14T00:06:11.636Z,0.11944444444444444
2024-04-14T00:07:00.039Z,0.15833333333333333
2024-04-14T00:07:58.723Z,0.15833333333333333
2024-04-14T00:09:01.025Z,0.2777777777777778
2024-04-14T00:09:59.834Z,0.11944444444444444
2024-04-14T00:11:16.020Z,0.049999999999999996
2024-04-14T00:12:01.401Z,0.3638888888888889
2024-04-14T00:12:59.855Z,0.08055555555555555
2024-04-14T00:14:01.018Z,0.5555555555555556
2024-04-14T00:15:10.960Z,0.03888888888888889
2024-04-14T00:15:59.778Z,0
2024-04-14T00:17:01.074Z,0.11944444444444444
2024-04-14T00:18:00.123Z,0
2024-04-14T00:18:59.305Z,0.35833333333333334
2024-04-14T00:20:01.045Z,0.2777777777777778
2024-04-14T00:21:00.246Z,0.11944444444444444
2024-04-14T00:21:58.916Z,0.15833333333333333
2024-04-14T00:22:59.676Z,0
2024-04-14T00:24:00.403Z,0.08055555555555555
2024-04-14T00:24:59.335Z,0.11944444444444444
2024-04-14T00:26:00.074Z,0.23888888888888887
2024-04-14T00:26:58.769Z,0.08055555555555555
2024-04-14T00:28:01.445Z,0
2024-04-14T00:29:00.196Z,0.11944444444444444
2024-04-14T00:29:58.890Z,0.08055555555555555
2024-04-14T00:31:03.130Z,0.11666666666666665
2024-04-14T00:32:01.077Z,0
2024-04-14T00:32:59.879Z,0.5166666666666667
2024-04-14T00:33:58.690Z,0.31666666666666665
2024-04-14T00:35:00.994Z,0.31666666666666665
2024-04-14T00:35:59.859Z,0.23888888888888887
2024-04-14T00:37:01.120Z,0.15833333333333333
2024-04-14T00:38:00.013Z,0.19999999999999998
2024-04-14T00:38:58.750Z,0.11944444444444444
2024-04-14T00:40:01.137Z,0
2024-04-14T00:40:59.903Z,0.08055555555555555
2024-04-14T00:42:01.162Z,0.19999999999999998
2024-04-14T00:42:59.933Z,0.11944444444444444
2024-04-14T00:43:58.670Z,0.19999999999999998
2024-04-14T00:45:00.326Z,0.11944444444444444
2024-04-14T00:45:59.065Z,0.08055555555555555
2024-04-14T00:46:59.706Z,0.19999999999999998
2024-04-14T00:48:01.160Z,0.03888888888888889
2024-04-14T00:49:00.084Z,0.35833333333333334
2024-04-14T00:49:58.844Z,0.08055555555555555
2024-04-14T00:51:01.082Z,0
2024-04-14T00:51:59.858Z,0
2024-04-14T00:53:01.029Z,0
2024-04-14T00:53:59.788Z,0
2024-04-14T00:55:01.117Z,0.03888888888888889
2024-04-14T00:55:59.867Z,0.03888888888888889
2024-04-14T00:57:00.951Z,0.2777777777777778
2024-04-14T00:57:59.790Z,0.11944444444444444
2024-04-14T00:59:01.028Z,0.03888888888888889
2024-04-14T00:59:59.698Z,0
2024-04-14T01:01:01.200Z,0
2024-04-14T01:01:59.820Z,0.11944444444444444
2024-04-14T01:03:01.224Z,0
2024-04-14T01:04:00.172Z,0
2024-04-14T01:04:59.072Z,0
2024-04-14T01:05:59.913Z,0.03888888888888889
2024-04-14T01:07:01.342Z,0.05833333333333333
2024-04-14T01:08:00.258Z,0.11944444444444444
2024-04-14T01:08:58.922Z,0
2024-04-14T01:10:01.209Z,0
2024-04-14T01:10:59.979Z,0
2024-04-14T01:11:58.859Z,0
2024-04-14T01:13:01.182Z,0
2024-04-14T01:13:59.877Z,0
2024-04-14T01:15:01.176Z,0.23888888888888887
2024-04-14T01:16:00.212Z,0
2024-04-14T01:16:59.006Z,0
2024-04-14T01:17:59.829Z,0.03888888888888889
2024-04-14T01:19:01.250Z,0.19999999999999998
2024-04-14T01:20:00.057Z,0
2024-04-14T01:20:58.805Z,0.08055555555555555
2024-04-14T01:22:01.014Z,0.17222222222222222
2024-04-14T01:23:00.136Z,0.03888888888888889
2024-04-14T01:23:58.846Z,0.31666666666666665
2024-04-14T01:25:01.443Z,0.14444444444444446
2024-04-14T01:26:00.174Z,0
2024-04-14T01:27:02.833Z,0.1361111111111111
2024-04-14T01:27:59.931Z,0
2024-04-14T01:28:58.778Z,0.08055555555555555
2024-04-14T01:30:01.083Z,0
2024-04-14T01:31:00.117Z,0.11944444444444444
2024-04-14T01:32:05.413Z,0
2024-04-14T01:32:59.818Z,0
2024-04-14T01:34:01.368Z,0
2024-04-14T01:35:00.028Z,0
2024-04-14T01:35:58.713Z,0
2024-04-14T01:37:08.356Z,0
2024-04-14T01:38:09.070Z,0.03888888888888889
2024-04-14T01:39:00.082Z,0.19999999999999998
2024-04-14T01:39:58.771Z,0.11944444444444444
2024-04-14T01:41:01.397Z,0.036111111111111115
2024-04-14T01:42:11.703Z,0.03888888888888889
2024-04-14T01:43:00.096Z,0
2024-04-14T01:43:58.761Z,0.14444444444444446
2024-04-14T01:45:01.215Z,0
2024-04-14T01:46:00.061Z,0
2024-04-14T01:46:58.796Z,0
2024-04-14T01:48:01.526Z,0.15833333333333333
2024-04-14T01:49:01.216Z,0.2777777777777778
2024-04-14T01:49:59.937Z,0.03888888888888889
2024-04-14T01:50:58.611Z,0
2024-04-14T01:52:00.395Z,0.03888888888888889
2024-04-14T01:52:59.192Z,0.23888888888888887
2024-04-14T01:53:59.959Z,0
2024-04-14T01:54:58.661Z,0.15833333333333333
2024-04-14T01:56:01.210Z,0.5166666666666667
2024-04-14T01:57:00.000Z,0.35833333333333334
2024-04-14T01:57:58.776Z,0.23888888888888887
2024-04-14T01:59:01.123Z,0.23888888888888887
2024-04-14T01:59:59.801Z,0.11944444444444444
2024-04-14T02:01:01.245Z,0.2777777777777778
2024-04-14T02:02:00.026Z,0.47777777777777775
2024-04-14T02:02:59.082Z,0.4361111111111111
2024-04-14T02:03:59.977Z,0.18333333333333335
2024-04-14T02:04:58.816Z,0.5972222222222222
2024-04-14T02:06:01.367Z,0.7416666666666666
2024-04-14T02:07:00.084Z,0.03888888888888889
2024-04-14T02:07:58.827Z,0.7555555555555555
2024-04-14T02:09:00.974Z,0.31666666666666665
2024-04-14T02:09:59.737Z,0.2777777777777778
2024-04-14T02:11:01.053Z,0.7555555555555555
2024-04-14T02:12:00.014Z,0.8333333333333333
2024-04-14T02:12:58.823Z,0.7555555555555555
2024-04-14T02:14:02.444Z,0.9138888888888889
2024-04-14T02:15:01.028Z,0.5555555555555556
2024-04-14T02:15:59.711Z,1.152777777777778
2024-04-14T02:17:01.037Z,0.5166666666666667
2024-04-14T02:17:59.845Z,0.2777777777777778
2024-04-14T02:18:59.172Z,1.086111111111111
2024-04-14T02:20:00.059Z,0.08055555555555555
2024-04-14T02:20:58.799Z,0.9138888888888889
2024-04-14T02:22:01.397Z,0.9222222222222222
2024-04-14T02:23:00.159Z,1.0333333333333334
2024-04-14T02:23:58.810Z,0.35833333333333334
2024-04-14T02:25:01.093Z,1.3111111111111111
2024-04-14T02:25:59.875Z,0.4361111111111111
2024-04-14T02:27:01.046Z,0.11944444444444444
2024-04-14T02:28:00.296Z,0.19999999999999998
2024-04-14T02:28:58.975Z,1.1916666666666667
2024-04-14T02:29:59.682Z,0.5555555555555556
2024-04-14T02:31:01.103Z,0.31666666666666665
2024-04-14T02:32:00.546Z,0.6361111111111111
2024-04-14T02:32:59.332Z,0.31666666666666665
2024-04-14T02:34:00.195Z,0.23888888888888887
2024-04-14T02:34:58.886Z,0.875
2024-04-14T02:36:00.960Z,0.19999999999999998
2024-04-14T02:36:59.685Z,0.6361111111111111
2024-04-14T02:38:01.209Z,0.31666666666666665
2024-04-14T02:38:59.846Z,1.1416666666666668
2024-04-14T02:40:01.181Z,0.7555555555555555
2024-04-14T02:40:59.977Z,0.19999999999999998
2024-04-14T02:41:58.764Z,0.3972222222222222
2024-04-14T02:43:00.987Z,0.5361111111111111
2024-04-14T02:43:59.645Z,0.2777777777777778
2024-04-14T02:45:00.331Z,0.17777777777777778
2024-04-14T02:45:59.070Z,0.31666666666666665
2024-04-14T02:47:00.222Z,0.35833333333333334
2024-04-14T02:47:58.963Z,0.4555555555555555
2024-04-14T02:48:59.715Z,0.6444444444444444
2024-04-14T02:50:01.054Z,0.35833333333333334
2024-04-14T02:50:59.735Z,0.4361111111111111
2024-04-14T02:52:01.006Z,0.47777777777777775
2024-04-14T02:52:59.742Z,0.33055555555555555
2024-04-14T02:54:00.981Z,0.23888888888888887
2024-04-14T02:54:59.703Z,0.5361111111111111
2024-04-14T02:56:01.208Z,0.2777777777777778
2024-04-14T02:56:59.968Z,0.23888888888888887
2024-04-14T02:57:58.768Z,0.49166666666666664
2024-04-14T02:59:01.095Z,0.49166666666666664
2024-04-14T02:59:59.806Z,0.7138888888888888
2024-04-14T03:01:01.192Z,0.2777777777777778
2024-04-14T03:02:00.004Z,0.19999999999999998
2024-04-14T03:03:00.382Z,0.39444444444444443
2024-04-14T03:03:59.152Z,0.47777777777777775
2024-04-14T03:04:59.983Z,0.34444444444444444
2024-04-14T03:05:58.699Z,0.7555555555555555
2024-04-14T03:07:01.033Z,0.31666666666666665
2024-04-14T03:08:03.647Z,0.23055555555555554
2024-04-14T03:09:01.754Z,1.011111111111111
2024-04-14T03:10:01.046Z,0.03888888888888889
2024-04-14T03:10:59.864Z,0.19999999999999998
2024-04-14T03:12:01.386Z,0.27499999999999997
2024-04-14T03:13:07.052Z,0.47777777777777775
2024-04-14T03:13:59.945Z,0.3972222222222222
2024-04-14T03:14:58.683Z,0.31666666666666665
2024-04-14T03:16:00.494Z,0.31666666666666665
2024-04-14T03:16:59.179Z,0.3972222222222222
2024-04-14T03:18:09.107Z,0.15833333333333333
2024-04-14T03:19:00.084Z,0.575
2024-04-14T03:19:58.787Z,0.19999999999999998
2024-04-14T03:21:01.460Z,0.4611111111111111
2024-04-14T03:22:00.166Z,0.11944444444444444
2024-04-14T03:23:12.772Z,0.15833333333333333
2024-04-14T03:24:02.326Z,0.08055555555555555
2024-04-14T03:25:00.999Z,0.2777777777777778
2024-04-14T03:25:59.745Z,0
2024-04-14T03:27:00.989Z,0.5555555555555556
2024-04-14T03:28:14.850Z,0.31666666666666665
2024-04-14T03:28:59.660Z,0.2888888888888889
2024-04-14T03:30:00.468Z,0.08055555555555555
2024-04-14T03:30:59.247Z,0.15833333333333333
2024-04-14T03:32:00.102Z,0.2777777777777778
2024-04-14T03:32:58.814Z,0.5555555555555556
2024-04-14T03:34:00.802Z,0
2024-04-14T03:34:59.681Z,0.9944444444444445
2024-04-14T03:36:00.376Z,1.3111111111111111
2024-04-14T03:36:59.189Z,0.23888888888888887
2024-04-14T03:38:00.310Z,0.8333333333333333
2024-04-14T03:38:59.026Z,0.46944444444444444
2024-04-14T03:39:59.814Z,0.7944444444444444
2024-04-14T03:41:01.009Z,0.15833333333333333
2024-04-14T03:41:59.776Z,0.2777777777777778
2024-04-14T03:43:01.095Z,0.2777777777777778
2024-04-14T03:44:00.133Z,0.5555555555555556
2024-04-14T03:44:58.796Z,0.4361111111111111
2024-04-14T03:46:01.476Z,0.23888888888888887
2024-04-14T03:47:00.477Z,0.2777777777777778
2024-04-14T03:47:59.337Z,0.6361111111111111
2024-04-14T03:49:00.054Z,0.6361111111111111
2024-04-14T03:49:58.789Z,0.11944444444444444
2024-04-14T03:51:00.533Z,0.31666666666666665
2024-04-14T03:51:59.304Z,0.5166666666666667
2024-04-14T03:53:00.482Z,0.7138888888888888
2024-04-14T03:53:59.232Z,0.4361111111111111
2024-04-14T03:55:00.005Z,1.0722222222222222
2024-04-14T03:55:58.752Z,0.15833333333333333
2024-04-14T03:57:00.976Z,1.9861111111111112
2024-04-14T03:57:59.691Z,0.5555555555555556
2024-04-14T03:59:00.391Z,0.15833333333333333
2024-04-14T03:59:59.062Z,0.4361111111111111
2024-04-14T04:00:59.941Z,0.35833333333333334
2024-04-14T04:01:58.747Z,0.35833333333333334
2024-04-14T04:03:01.043Z,0.7138888888888888
2024-04-14T04:03:59.763Z,0.11944444444444444
2024-04-14T04:05:01.061Z,0.4361111111111111
2024-04-14T04:06:00.094Z,0.3972222222222222
2024-04-14T04:06:58.844Z,0.31666666666666665
2024-04-14T04:08:02.628Z,0.9138888888888889
2024-04-14T04:09:00.972Z,0.5972222222222222
2024-04-14T04:09:59.815Z,0.47777777777777775
2024-04-14T04:11:01.048Z,0.3972222222222222
2024-04-14T04:11:59.753Z,0.15833333333333333
2024-04-14T04:13:01.017Z,0.15833333333333333
2024-04-14T04:13:59.673Z,0
2024-04-14T04:15:00.411Z,0.6555555555555556
2024-04-14T04:15:59.172Z,0.5555555555555556
2024-04-14T04:16:59.907Z,0.19999999999999998
2024-04-14T04:18:01.160Z,0.2777777777777778
2024-04-14T04:19:07.612Z,0.1388888888888889
2024-04-14T04:20:00.156Z,0.47777777777777775
2024-04-14T04:20:58.998Z,0.7555555555555555
2024-04-14T04:21:59.781Z,0.35833333333333334
2024-04-14T04:23:00.959Z,0.15833333333333333
2024-04-14T04:23:59.648Z,0.11111111111111112
2024-04-14T04:25:00.495Z,0.3972222222222222
2024-04-14T04:25:59.590Z,0.47777777777777775
2024-04-14T04:27:00.496Z,0.6361111111111111
2024-04-14T04:27:59.294Z,0.3972222222222222
2024-04-14T04:29:01.013Z,0.5666666666666667
2024-04-14T04:29:59.663Z,0.3194444444444444
2024-04-14T04:31:00.501Z,0.35833333333333334
2024-04-14T04:31:59.267Z,0.15833333333333333
2024-04-14T04:33:00.070Z,0.47777777777777775
2024-04-14T04:33:58.862Z,0.85
2024-04-14T04:35:01.036Z,0.8333333333333333
2024-04-14T04:35:59.707Z,0.7944444444444444
2024-04-14T04:37:01.085Z,0.15833333333333333
2024-04-14T04:37:59.836Z,0.23888888888888887
2024-04-14T04:39:00.862Z,0.26944444444444443
2024-04-14T04:39:59.672Z,0.7944444444444444
2024-04-14T04:41:01.394Z,0.15
2024-04-14T04:42:00.064Z,0.7138888888888888
2024-04-14T04:42:58.824Z,0.2777777777777778
2024-04-14T04:44:03.340Z,0.5277777777777778
2024-04-14T04:45:01.007Z,1.0333333333333334
2024-04-14T04:45:59.706Z,0.15833333333333333
2024-04-14T04:47:01.037Z,0.15833333333333333
2024-04-14T04:47:59.843Z,0.3972222222222222
2024-04-14T04:49:05.669Z,0.725
2024-04-14T04:50:01.351Z,0.26666666666666666
2024-04-14T04:51:00.063Z,0.4361111111111111
2024-04-14T04:51:58.956Z,0.23888888888888887
2024-04-14T04:52:59.717Z,0.15833333333333333
2024-04-14T04:54:08.469Z,0.4555555555555555
2024-04-14T04:55:01.044Z,0.4361111111111111
2024-04-14T04:55:59.775Z,0.6361111111111111
2024-04-14T04:57:00.992Z,0.9138888888888889
2024-04-14T04:57:59.671Z,0.7944444444444444
2024-04-14T04:59:11.386Z,0.6138888888888888
2024-04-14T05:00:00.955Z,1.3111111111111111
2024-04-14T05:00:59.998Z,0.9944444444444445
2024-04-14T05:01:59.144Z,0.675
2024-04-14T05:02:59.939Z,0.9527777777777778
2024-04-14T05:04:13.545Z,0.9527777777777778
2024-04-14T05:04:59.600Z,0.5555555555555556
2024-04-14T05:06:00.265Z,0.3972222222222222
2024-04-14T05:06:59.175Z,0.6361111111111111
2024-04-14T05:08:00.041Z,0.6361111111111111
2024-04-14T05:08:58.703Z,0.5555555555555556
2024-04-14T05:10:01.046Z,0.5388888888888889
2024-04-14T05:10:59.889Z,0.5555555555555556
2024-04-14T05:11:58.813Z,0.23888888888888887
2024-04-14T05:13:01.043Z,0.23888888888888887
2024-04-14T05:13:59.766Z,0.675
2024-04-14T05:15:01.405Z,1.1222222222222222
2024-04-14T05:16:00.184Z,0.5972222222222222
2024-04-14T05:16:58.902Z,0.35833333333333334
2024-04-14T05:18:01.095Z,0.47777777777777775
2024-04-14T05:18:59.865Z,0.9944444444444445
2024-04-14T05:20:00.622Z,0.775
2024-04-14T05:20:59.314Z,0.5166666666666667
2024-04-14T05:22:00.056Z,0.47777777777777775
2024-04-14T05:22:58.796Z,0.9527777777777778
2024-04-14T05:24:01.004Z,0.7555555555555555
2024-04-14T05:25:00.639Z,0.9944444444444445
2024-04-14T05:25:59.361Z,0.6361111111111111
2024-04-14T05:27:00.163Z,0.8333333333333333
2024-04-14T05:27:58.908Z,0.7555555555555555
2024-04-14T05:29:01.400Z,1.0305555555555554
2024-04-14T05:30:00.071Z,1.472222222222222
2024-04-14T05:30:58.977Z,1.1111111111111112
2024-04-14T05:31:59.729Z,1.35
2024-04-14T05:33:01.052Z,0.7138888888888888
2024-04-14T05:33:59.876Z,0.9527777777777778
2024-04-14T05:34:58.675Z,0.7555555555555555
2024-04-14T05:36:01.434Z,0.6638888888888889
2024-04-14T05:37:00.175Z,0.5166666666666667
2024-04-14T05:37:58.912Z,0.5972222222222222
2024-04-14T05:39:00.667Z,0.3972222222222222
2024-04-14T05:39:59.447Z,0.8555555555555555
2024-04-14T05:41:00.166Z,0.8333333333333333
2024-04-14T05:41:58.923Z,0.47777777777777775
2024-04-14T05:43:01.030Z,0.5555555555555556
2024-04-14T05:43:59.696Z,1.1916666666666667
2024-04-14T05:45:01.118Z,1.3111111111111111
2024-04-14T05:45:59.837Z,0.7944444444444444
2024-04-14T05:46:58.765Z,0.9527777777777778
2024-04-14T05:48:01.110Z,0.5166666666666667
2024-04-14T05:49:17.556Z,1.7083333333333335
2024-04-14T05:50:01.638Z,0.5361111111111111
2024-04-14T05:51:01.042Z,0.675
2024-04-14T05:51:59.747Z,0.9138888888888889
2024-04-14T05:53:01.433Z,0.35555555555555557
2024-04-14T05:54:00.136Z,0.8333333333333333
2024-04-14T05:54:58.888Z,0.9194444444444444
2024-04-14T05:55:59.628Z,0.9944444444444445
2024-04-14T05:57:00.407Z,1.0722222222222222
2024-04-14T05:57:59.156Z,1.5888888888888888
2024-04-14T05:58:59.853Z,0.47777777777777775
2024-04-14T06:00:00.979Z,0.5555555555555556
2024-04-14T06:01:01.978Z,1.0722222222222222
2024-04-14T06:02:00.000Z,0.7138888888888888
2024-04-14T06:02:58.844Z,0.5972222222222222
2024-04-14T06:04:01.312Z,0.875
2024-04-14T06:05:00.148Z,0.5916666666666667
2024-04-14T06:05:58.886Z,0.6361111111111111
2024-04-14T06:07:01.101Z,0.3972222222222222
2024-04-14T06:07:59.874Z,0.35833333333333334
2024-04-14T06:09:01.073Z,1.5083333333333333
2024-04-14T06:09:59.900Z,1.0583333333333333
2024-04-14T06:10:58.875Z,0.7138888888888888
2024-04-14T06:12:00.981Z,1.2722222222222221
2024-04-14T06:12:59.805Z,0.4361111111111111
2024-04-14T06:14:01.810Z,0.875
2024-04-14T06:15:01.017Z,0.41944444444444445
2024-04-14T06:16:01.857Z,0.6361111111111111
2024-04-14T06:16:59.839Z,1.6277777777777778
2024-04-14T06:18:01.074Z,0.35833333333333334
2024-04-14T06:18:59.879Z,1.2305555555555554
2024-04-14T06:20:02.609Z,1.1055555555555556
2024-04-14T06:21:00.954Z,0.5555555555555556
2024-04-14T06:21:59.709Z,0.5166666666666667
2024-04-14T06:23:00.956Z,1.35
2024-04-14T06:23:59.725Z,0.9944444444444445
2024-04-14T06:25:06.354Z,0.8611111111111112
2024-04-14T06:26:01.074Z,0.23888888888888887
2024-04-14T06:26:59.848Z,0.7555555555555555
2024-04-14T06:28:01.088Z,1.35
2024-04-14T06:28:59.864Z,0.8333333333333333
2024-04-14T06:30:09.338Z,1.3527777777777779
2024-04-14T06:31:01.078Z,0.9138888888888889
2024-04-14T06:31:59.984Z,1.0333333333333334
2024-04-14T06:32:58.859Z,1.1916666666666667
2024-04-14T06:33:59.712Z,0.2777777777777778
2024-04-14T06:35:13.279Z,0.4555555555555555
2024-04-14T06:36:00.970Z,0.875
2024-04-14T06:36:59.740Z,0.47777777777777775
2024-04-14T06:38:01.049Z,0.9944444444444445
2024-04-14T06:38:59.752Z,1.8666666666666665
2024-04-14T06:40:15.115Z,1.2666666666666666
2024-04-14T06:41:01.067Z,0.3972222222222222
2024-04-14T06:41:59.719Z,1.7083333333333335
2024-04-14T06:43:01.011Z,1.4694444444444443
2024-04-14T06:43:59.758Z,0.5166666666666667
2024-04-14T06:45:01.000Z,1.1916666666666667
2024-04-14T06:45:59.798Z,0.6361111111111111
2024-04-14T06:47:01.023Z,0.9944444444444445
2024-04-14T06:47:59.826Z,1.5083333333333333
2024-04-14T06:49:01.057Z,1.2305555555555554
2024-04-14T06:49:59.785Z,0.7138888888888888
2024-04-14T06:51:01.461Z,0.6138888888888888
2024-04-14T06:52:00.286Z,0.875
2024-04-14T06:52:58.940Z,1.2305555555555554
2024-04-14T06:53:59.599Z,0.875
2024-04-14T06:55:00.366Z,1.7472222222222222
2024-04-14T06:55:59.217Z,1.55
2024-04-14T06:57:00.059Z,1.5083333333333333
2024-04-14T06:57:58.898Z,2.344444444444444
2024-04-14T06:58:59.640Z,1.0333333333333334
2024-04-14T07:00:00.712Z,1.7472222222222222
2024-04-14T07:00:59.426Z,0.8333333333333333
2024-04-14T07:02:00.317Z,2.8194444444444446
2024-04-14T07:02:59.019Z,0.9138888888888889
2024-04-14T07:03:59.843Z,1.6277777777777778
2024-04-14T07:05:01.024Z,1.5888888888888888
2024-04-14T07:05:59.933Z,1.3111111111111111
2024-04-14T07:06:58.713Z,1.2722222222222221
2024-04-14T07:08:01.418Z,1.186111111111111
2024-04-14T07:09:00.126Z,0.5555555555555556
2024-04-14T07:09:58.863Z,0.675
2024-04-14T07:11:01.109Z,1.7083333333333335
2024-04-14T07:11:59.841Z,1.2305555555555554
2024-04-14T07:13:01.055Z,2.4222222222222225
2024-04-14T07:13:59.742Z,1.8277777777777777
2024-04-14T07:15:00.989Z,1.4305555555555556
2024-04-14T07:16:01.792Z,1.6277777777777778
2024-04-14T07:16:59.653Z,1.3111111111111111
2024-04-14T07:18:00.529Z,1.55
2024-04-14T07:18:59.433Z,2.186111111111111
2024-04-14T07:20:00.238Z,1.4694444444444443
2024-04-14T07:20:58.964Z,1.152777777777778
2024-04-14T07:21:59.694Z,1.7472222222222222
2024-04-14T07:23:01.037Z,1.55
2024-04-14T07:23:59.700Z,1.8277777777777777
2024-04-14T07:25:01.171Z,1.9472222222222222
2024-04-14T07:25:59.973Z,1.8666666666666665
2024-04-14T07:26:58.708Z,0.47777777777777775
2024-04-14T07:28:01.107Z,1.35
2024-04-14T07:28:59.815Z,2.066666666666667
2024-04-14T07:30:01.042Z,1.788888888888889
2024-04-14T07:30:59.879Z,2.186111111111111
2024-04-14T07:32:00.992Z,0.4361111111111111
2024-04-14T07:32:59.770Z,1.788888888888889
2024-04-14T07:34:01.030Z,1.1111111111111112
2024-04-14T07:34:59.828Z,1.1916666666666667
2024-04-14T07:36:01.422Z,1.0222222222222221
2024-04-14T07:37:00.156Z,1.7083333333333335
2024-04-14T07:37:58.873Z,1.788888888888889
2024-04-14T07:39:01.341Z,1.788888888888889
2024-04-14T07:40:00.059Z,0.875
2024-04-14T07:40:58.773Z,1.4777777777777779
2024-04-14T07:42:00.958Z,0.5166666666666667
2024-04-14T07:42:59.827Z,1.8277777777777777
2024-04-14T07:44:00.991Z,1.788888888888889
2024-04-14T07:44:59.852Z,1.1916666666666667
2024-04-14T07:46:01.232Z,2.275
2024-04-14T07:47:00.061Z,2.1444444444444444
2024-04-14T07:47:58.877Z,0.875
2024-04-14T07:48:59.724Z,2.186111111111111
2024-04-14T07:50:01.019Z,1.4305555555555556
2024-04-14T07:50:59.690Z,0.9083333333333333
2024-04-14T07:52:00.476Z,0.47777777777777775
2024-04-14T07:52:59.790Z,0.5166666666666667
2024-04-14T07:54:01.104Z,0.9944444444444445
2024-04-14T07:54:59.832Z,1.2722222222222221
2024-04-14T07:56:01.449Z,1.7694444444444444
2024-04-14T07:57:00.104Z,0.7555555555555555
2024-04-14T07:57:58.884Z,1.35
2024-04-14T07:58:59.624Z,1.9472222222222222
2024-04-14T08:00:00.362Z,1.3916666666666666
2024-04-14T08:00:59.274Z,1.0083333333333333
2024-04-14T08:01:59.976Z,1.9861111111111112
2024-04-14T08:02:58.783Z,1.4305555555555556
2024-04-14T08:04:01.106Z,1.3916666666666666
2024-04-14T08:05:00.022Z,1.1111111111111112
2024-04-14T08:06:03.636Z,0.5666666666666667
2024-04-14T08:06:59.859Z,0.8333333333333333
2024-04-14T08:08:01.053Z,2.066666666666667
2024-04-14T08:08:59.731Z,1.8666666666666665
2024-04-14T08:10:01.227Z,0.9944444444444445
2024-04-14T08:11:05.634Z,1.8583333333333334
2024-04-14T08:11:59.830Z,0.3972222222222222
2024-04-14T08:13:01.048Z,1.0722222222222222
2024-04-14T08:13:59.827Z,1.788888888888889
2024-04-14T08:15:00.997Z,2.1055555555555556
2024-04-14T08:16:07.662Z,0.7138888888888888
2024-04-14T08:16:59.752Z,1.4305555555555556
2024-04-14T08:18:01.005Z,1.152777777777778
2024-04-14T08:18:59.817Z,1.7472222222222222
2024-04-14T08:20:00.966Z,1.8666666666666665
2024-04-14T08:21:09.577Z,1.2722222222222221
2024-04-14T08:22:00.567Z,1.2722222222222221
2024-04-14T08:22:59.291Z,1.6277777777777778
2024-04-14T08:24:00.024Z,2.263888888888889
2024-04-14T08:24:58.731Z,0.9944444444444445
2024-04-14T08:26:12.651Z,0.8833333333333333
2024-04-14T08:27:01.081Z,0.9138888888888889
2024-04-14T08:27:59.799Z,1.788888888888889
2024-04-14T08:29:00.966Z,2.025
2024-04-14T08:29:59.622Z,1.8666666666666665
2024-04-14T08:31:14.432Z,0.9527777777777778
2024-04-14T08:32:00.054Z,2.025
2024-04-14T08:32:58.862Z,1.7083333333333335
2024-04-14T08:34:06.201Z,1.2722222222222221
2024-04-14T08:35:03.080Z,0.9777777777777777
2024-04-14T08:36:00.085Z,0.875
2024-04-14T08:36:58.793Z,0.7138888888888888
2024-04-14T08:38:01.060Z,0.675
2024-04-14T08:38:59.829Z,2.6222222222222222
2024-04-14T08:40:01.374Z,1.0722222222222222
2024-04-14T08:41:01.052Z,0.7138888888888888
2024-04-14T08:41:59.707Z,0.9527777777777778
2024-04-14T08:43:01.216Z,1.2305555555555554
2024-04-14T08:44:00.036Z,2.344444444444444
2024-04-14T08:44:58.704Z,0.675
2024-04-14T08:46:01.037Z,0.5555555555555556
2024-04-14T08:46:59.791Z,1.9472222222222222
2024-04-14T08:48:01.094Z,2.7
2024-04-14T08:49:00.031Z,1.788888888888889
2024-04-14T08:49:58.749Z,1.35
2024-04-14T08:51:01.247Z,0.8333333333333333
2024-04-14T08:51:59.941Z,1.6277777777777778
2024-04-14T08:52:58.612Z,2.3833333333333333
2024-04-14T08:54:00.273Z,1.2722222222222221
2024-04-14T08:54:59.618Z,0.9138888888888889
2024-04-14T08:56:00.272Z,1.5888888888888888
2024-04-14T08:56:58.926Z,1.35
2024-04-14T08:57:59.794Z,1.7472222222222222
2024-04-14T08:59:01.370Z,1.663888888888889
2024-04-14T09:00:00.034Z,1.7083333333333335
2024-04-14T09:00:58.785Z,1.0333333333333334
2024-04-14T09:02:01.010Z,1.4694444444444443
2024-04-14T09:02:59.805Z,0.6361111111111111
2024-04-14T09:04:01.077Z,1.2305555555555554
2024-04-14T09:04:59.835Z,0.7944444444444444
2024-04-14T09:06:01.005Z,2.5416666666666665
2024-04-14T09:06:59.695Z,0.7138888888888888
2024-04-14T09:08:01.370Z,1.4444444444444444
2024-04-14T09:09:00.118Z,2.3027777777777776
2024-04-14T09:09:58.952Z,1.55
2024-04-14T09:10:59.604Z,2.1055555555555556
2024-04-14T09:12:00.363Z,1.0333333333333334
2024-04-14T09:12:59.417Z,0.875
2024-04-14T09:14:00.109Z,1.9472222222222222
2024-04-14T09:14:58.804Z,2.263888888888889
2024-04-14T09:16:01.106Z,1.788888888888889
2024-04-14T09:16:59.857Z,1.7083333333333335
2024-04-14T09:18:01.216Z,0.5555555555555556
2024-04-14T09:19:00.022Z,1.152777777777778
2024-04-14T09:19:58.733Z,1.2305555555555554
2024-04-14T09:21:01.018Z,2.6222222222222222
2024-04-14T09:21:59.718Z,1.788888888888889
2024-04-14T09:23:00.955Z,1.1916666666666667
2024-04-14T09:23:59.694Z,1.0722222222222222
2024-04-14T09:25:01.239Z,1.3916666666666666
2024-04-14T09:26:00.038Z,1.8666666666666665
2024-04-14T09:26:58.804Z,1.472222222222222
2024-04-14T09:28:01.179Z,1.788888888888889
2024-04-14T09:28:59.918Z,2.5416666666666665